Time;durP1;ratioP1;P1;durP2;ratioP2;P2;SDS_P1;SDS_P2;PMS_P1;PMS_P2;Temp;Humidity;BMP_temperature;BMP_pressure;BME280_temperature;BME280_humidity;BME280_pressure;Samples;Min_cycle;Max_cycle;Signal;HPM_P1;HPM_P2
2021/05/05 00:02:01;;;;;;;0.38;0.35;;;7.60;99.90;;;;;;5107560;28;20659;-78
2021/05/05 00:04:29;;;;;;;2.25;0.60;;;7.50;99.90;;;;;;5092708;28;20210;-78
2021/05/05 00:06:57;;;;;;;0.50;0.50;;;7.50;99.90;;;;;;5101468;28;20663;-79
2021/05/05 00:09:24;;;;;;;1.05;0.50;;;7.70;99.90;;;;;;5096666;28;20238;-79
2021/05/05 00:11:51;;;;;;;0.73;0.50;;;7.60;99.90;;;;;;5100332;28;20225;-79
2021/05/05 00:14:19;;;;;;;1.05;0.60;;;7.60;99.90;;;;;;5102763;28;20206;-79
2021/05/05 00:16:46;;;;;;;1.20;0.88;;;7.60;99.90;;;;;;5112518;28;20206;-79
2021/05/05 00:19:13;;;;;;;2.45;0.60;;;7.60;99.90;;;;;;5095733;28;20233;-78
2021/05/05 00:21:41;;;;;;;0.93;0.70;;;7.50;99.90;;;;;;5097206;28;20206;-78
2021/05/05 00:24:08;;;;;;;1.33;0.52;;;7.70;99.90;;;;;;5095385;28;20609;-78
2021/05/05 00:26:35;;;;;;;0.85;0.60;;;7.70;99.90;;;;;;5111204;28;20716;-78
2021/05/05 00:29:02;;;;;;;0.70;0.70;;;7.60;99.90;;;;;;5100112;28;20230;-79
2021/05/05 00:31:29;;;;;;;1.60;0.60;;;7.50;99.90;;;;;;5092011;28;20578;-78
2021/05/05 00:33:55;;;;;;;0.77;0.77;;;7.60;99.90;;;;;;5092928;28;20202;-78
2021/05/05 00:36:22;;;;;;;4.32;1.45;;;7.60;99.90;;;;;;5091889;28;20234;-79
2021/05/05 00:38:48;;;;;;;0.70;0.50;;;7.60;99.90;;;;;;5098092;28;20226;-79
2021/05/05 00:41:17;;;;;;;1.95;0.60;;;7.50;99.90;;;;;;5106506;28;20785;-78
2021/05/05 00:43:43;;;;;;;0.55;0.55;;;7.30;99.90;;;;;;5110365;28;20205;-79
2021/05/05 00:46:11;;;;;;;0.63;0.63;;;7.30;99.90;;;;;;5090622;28;20253;-78
2021/05/05 00:48:37;;;;;;;1.10;1.00;;;7.30;99.90;;;;;;5095203;28;20190;-78
2021/05/05 00:51:05;;;;;;;3.58;1.10;;;7.50;99.90;;;;;;5111509;28;20202;-78
2021/05/05 00:53:32;;;;;;;2.47;0.88;;;7.50;99.90;;;;;;5097481;28;20281;-78
2021/05/05 00:55:59;;;;;;;0.98;0.82;;;7.50;99.90;;;;;;5091610;28;20210;-78
2021/05/05 00:58:26;;;;;;;0.80;0.80;;;7.30;99.90;;;;;;5100050;28;20246;-79
2021/05/05 01:00:52;;;;;;;2.15;0.77;;;7.30;99.90;;;;;;5094449;28;20194;-78
2021/05/05 01:03:28;;;;;;;1.45;1.00;;;7.40;99.90;;;;;;5148884;27;20722;-79
2021/05/05 01:05:58;;;;;;;2.13;1.10;;;7.50;99.90;;;;;;5139574;27;20190;-79
2021/05/05 01:08:25;;;;;;;1.40;0.90;;;7.60;99.90;;;;;;5132127;27;20221;-78
2021/05/05 01:10:53;;;;;;;2.53;0.95;;;7.40;99.90;;;;;;5147736;27;20193;-78
2021/05/05 01:13:21;;;;;;;1.00;0.90;;;7.50;99.90;;;;;;5135997;27;20623;-79
2021/05/05 01:15:49;;;;;;;1.10;1.00;;;7.50;99.90;;;;;;5133351;27;20190;-78
2021/05/05 01:18:17;;;;;;;2.25;0.82;;;7.70;99.90;;;;;;5127577;27;20193;-78
2021/05/05 01:20:47;;;;;;;2.25;1.15;;;7.60;99.90;;;;;;5126879;27;20671;-79
2021/05/05 01:23:16;;;;;;;1.00;0.90;;;7.60;99.90;;;;;;5128697;27;20316;-79
2021/05/05 01:25:45;;;;;;;1.08;0.98;;;7.70;99.90;;;;;;5148514;27;20192;-79
2021/05/05 01:28:12;;;;;;;1.70;0.98;;;7.70;99.90;;;;;;5129727;27;20205;-78
2021/05/05 01:30:40;;;;;;;1.55;0.95;;;7.90;99.90;;;;;;5145630;27;20610;-78
2021/05/05 01:33:09;;;;;;;1.00;0.90;;;7.70;99.90;;;;;;5141536;27;20197;-78
2021/05/05 01:35:38;;;;;;;4.85;1.23;;;7.90;99.90;;;;;;5132915;27;20241;-78
2021/05/05 01:38:05;;;;;;;2.05;0.80;;;7.70;99.90;;;;;;5141900;27;20197;-78
2021/05/05 01:40:35;;;;;;;1.50;0.90;;;7.70;99.90;;;;;;5136257;27;20199;-79
2021/05/05 01:43:05;;;;;;;1.33;1.10;;;7.70;99.90;;;;;;5136606;27;20221;-78
2021/05/05 01:45:37;;;;;;;2.30;1.10;;;7.70;99.90;;;;;;5133845;27;20201;-78
2021/05/05 01:48:09;;;;;;;1.50;1.17;;;7.80;99.90;;;;;;5140278;27;20203;-78
2021/05/05 01:50:46;;;;;;;3.58;1.00;;;8.00;99.90;;;;;;5144482;27;20193;-79
2021/05/05 01:53:16;;;;;;;1.40;0.80;;;8.10;99.90;;;;;;5136485;27;20227;-79
2021/05/05 01:55:46;;;;;;;1.02;0.95;;;8.10;99.90;;;;;;5128366;27;20250;-79
2021/05/05 01:58:17;;;;;;;2.83;1.13;;;8.20;99.90;;;;;;5141574;27;20289;-79
2021/05/05 02:00:48;;;;;;;1.40;0.95;;;8.00;99.90;;;;;;5129838;27;20740;-78
2021/05/05 02:03:16;;;;;;;0.88;0.88;;;8.10;99.90;;;;;;5130530;27;20358;-79
2021/05/05 02:05:44;;;;;;;1.63;0.98;;;8.20;99.90;;;;;;5127359;27;20208;-79
2021/05/05 02:08:11;;;;;;;1.30;0.95;;;8.10;99.90;;;;;;5128099;27;20250;-78
2021/05/05 02:10:40;;;;;;;4.80;1.25;;;8.20;99.90;;;;;;5146871;27;20578;-78
2021/05/05 02:13:09;;;;;;;0.70;0.70;;;8.30;99.90;;;;;;5123329;27;20305;-78
2021/05/05 02:15:37;;;;;;;1.63;0.75;;;8.20;99.90;;;;;;5093217;28;20199;-79
2021/05/05 02:18:06;;;;;;;3.28;1.10;;;8.20;99.90;;;;;;5124180;27;20202;-78
2021/05/05 02:20:35;;;;;;;2.45;1.00;;;8.30;99.90;;;;;;5109522;27;20186;-78
2021/05/05 02:23:02;;;;;;;0.90;0.85;;;8.30;99.90;;;;;;5109593;27;20225;-78
2021/05/05 02:25:31;;;;;;;0.80;0.70;;;8.20;99.90;;;;;;5113773;27;21989;-78
2021/05/05 02:28:00;;;;;;;1.10;1.00;;;8.20;99.90;;;;;;5112337;28;20194;-78
2021/05/05 02:30:31;;;;;;;1.20;1.00;;;8.20;99.90;;;;;;5122914;27;20202;-78
2021/05/05 02:33:00;;;;;;;1.17;0.85;;;8.30;99.90;;;;;;5118084;27;20193;-78
2021/05/05 02:35:32;;;;;;;3.85;1.10;;;8.20;99.90;;;;;;5117981;27;20198;-79
2021/05/05 02:38:03;;;;;;;1.00;0.90;;;8.10;99.90;;;;;;5114253;27;20205;-78
2021/05/05 02:40:32;;;;;;;1.30;0.70;;;8.20;99.90;;;;;;5112555;28;20743;-78
2021/05/05 02:43:00;;;;;;;1.42;0.98;;;8.20;99.90;;;;;;5118390;27;20225;-78
2021/05/05 02:45:29;;;;;;;2.13;1.00;;;8.10;99.90;;;;;;5119029;27;20201;-78
2021/05/05 02:47:57;;;;;;;1.30;1.20;;;8.20;99.90;;;;;;5133481;27;20234;-78
2021/05/05 02:50:25;;;;;;;0.70;0.70;;;8.10;99.90;;;;;;5112969;27;20221;-78
2021/05/05 02:52:53;;;;;;;1.02;0.90;;;8.20;99.90;;;;;;5114960;27;20232;-78
2021/05/05 02:55:21;;;;;;;0.73;0.73;;;8.10;99.90;;;;;;5132374;27;20240;-77
2021/05/05 02:57:49;;;;;;;4.80;1.30;;;7.90;99.90;;;;;;5132132;27;20193;-77
2021/05/05 03:00:19;;;;;;;2.42;1.70;;;8.00;99.90;;;;;;5103534;27;20207;-77
2021/05/05 03:03:07;;;;;;;1.23;1.13;;;8.00;99.90;;;;;;5112678;27;20282;-78
2021/05/05 03:05:53;;;;;;;2.13;1.10;;;8.10;99.90;;;;;;5092014;28;20209;-79
2021/05/05 03:08:26;;;;;;;1.30;0.98;;;8.10;99.90;;;;;;5102350;27;20210;-79
2021/05/05 03:10:55;;;;;;;1.73;1.05;;;8.10;99.90;;;;;;5114250;27;20194;-79
2021/05/05 03:13:23;;;;;;;1.00;0.95;;;8.10;99.90;;;;;;5117109;27;20209;-79
2021/05/05 03:15:50;;;;;;;3.55;1.13;;;8.10;99.90;;;;;;5112284;28;20674;-79
2021/05/05 03:18:17;;;;;;;0.88;0.85;;;8.20;99.90;;;;;;5116922;27;20197;-79
2021/05/05 03:20:43;;;;;;;3.20;1.50;;;8.20;99.90;;;;;;5125305;27;20243;-79
2021/05/05 03:23:10;;;;;;;2.15;1.27;;;8.10;99.90;;;;;;5126062;27;20213;-79
2021/05/05 03:25:36;;;;;;;1.58;1.48;;;8.10;99.90;;;;;;5110437;28;20593;-79
2021/05/05 03:28:03;;;;;;;2.38;1.40;;;8.20;99.90;;;;;;5118782;27;20189;-79
2021/05/05 03:30:29;;;;;;;1.35;1.25;;;8.20;99.90;;;;;;5111814;28;20595;-79
2021/05/05 03:32:56;;;;;;;1.63;1.10;;;8.20;99.90;;;;;;5117870;27;20221;-79
2021/05/05 03:35:23;;;;;;;2.70;1.10;;;8.20;99.90;;;;;;5113102;27;20190;-79
2021/05/05 03:37:49;;;;;;;0.93;0.93;;;7.90;99.90;;;;;;5132085;27;20544;-79
2021/05/05 03:40:16;;;;;;;1.80;0.90;;;8.00;99.90;;;;;;5111015;28;20200;-79
2021/05/05 03:42:43;;;;;;;1.40;1.27;;;7.90;99.90;;;;;;5113013;27;20216;-79
2021/05/05 03:45:10;;;;;;;3.03;0.90;;;7.90;99.90;;;;;;5129919;27;20189;-80
2021/05/05 03:47:37;;;;;;;2.95;1.25;;;7.80;99.90;;;;;;5129411;27;20236;-79
2021/05/05 03:50:04;;;;;;;1.55;1.45;;;8.00;99.90;;;;;;5130772;27;20296;-80
2021/05/05 03:52:32;;;;;;;1.70;1.20;;;7.70;99.90;;;;;;5130596;27;20193;-79
2021/05/05 03:54:58;;;;;;;2.47;1.30;;;7.80;99.90;;;;;;5111154;27;20190;-79
2021/05/05 03:57:25;;;;;;;2.80;0.90;;;7.80;99.90;;;;;;5111482;28;20251;-79
2021/05/05 03:59:51;;;;;;;1.73;1.05;;;7.80;99.90;;;;;;5130550;27;20658;-80
2021/05/05 04:02:18;;;;;;;1.10;1.02;;;7.60;99.90;;;;;;5132072;27;20609;-80
2021/05/05 04:04:44;;;;;;;1.40;1.20;;;7.70;99.90;;;;;;5129545;27;20192;-79
2021/05/05 04:07:10;;;;;;;3.92;1.13;;;7.40;99.90;;;;;;5131659;27;20223;-79
2021/05/05 04:09:38;;;;;;;1.08;1.08;;;7.40;99.90;;;;;;5127833;27;20224;-79
2021/05/05 04:12:06;;;;;;;1.10;1.10;;;7.30;99.90;;;;;;5115065;27;20190;-79
2021/05/05 04:14:33;;;;;;;2.22;1.45;;;7.20;99.90;;;;;;5127476;27;20203;-79
2021/05/05 04:16:59;;;;;;;0.90;0.90;;;7.20;99.90;;;;;;5130730;27;20223;-79
2021/05/05 04:19:26;;;;;;;0.70;0.70;;;7.10;99.90;;;;;;5120109;27;20189;-79
2021/05/05 04:21:52;;;;;;;1.05;0.80;;;7.10;99.90;;;;;;5127556;27;20241;-79
2021/05/05 04:24:19;;;;;;;2.20;1.02;;;7.00;99.90;;;;;;5121252;27;20209;-79
2021/05/05 04:26:49;;;;;;;1.25;0.80;;;7.00;99.90;;;;;;5112855;27;20202;-79
2021/05/05 04:29:18;;;;;;;0.80;0.68;;;6.90;99.90;;;;;;5117905;27;20188;-79
2021/05/05 04:31:46;;;;;;;0.75;0.73;;;6.90;99.90;;;;;;5111931;28;20233;-79
2021/05/05 04:34:13;;;;;;;0.70;0.70;;;6.90;99.90;;;;;;5114989;27;20198;-79
2021/05/05 04:36:39;;;;;;;0.90;0.80;;;6.90;99.90;;;;;;5130382;27;20201;-79
2021/05/05 04:39:06;;;;;;;0.70;0.70;;;6.90;99.90;;;;;;5109101;28;20239;-79
2021/05/05 04:41:33;;;;;;;0.80;0.75;;;7.00;99.90;;;;;;5110653;28;20230;-79
2021/05/05 04:44:00;;;;;;;1.48;0.63;;;7.10;99.90;;;;;;5121159;27;20197;-79
2021/05/05 04:46:27;;;;;;;0.90;0.90;;;7.10;99.90;;;;;;5114123;27;20289;-79
2021/05/05 04:48:53;;;;;;;1.52;1.42;;;7.00;99.90;;;;;;5123189;27;20197;-79
2021/05/05 04:51:20;;;;;;;1.00;1.00;;;6.90;99.90;;;;;;5110655;28;20274;-78
2021/05/05 04:53:46;;;;;;;1.23;0.80;;;6.80;99.90;;;;;;5111604;27;20186;-78
2021/05/05 04:56:13;;;;;;;0.70;0.70;;;6.90;99.90;;;;;;5110610;28;20201;-78
2021/05/05 04:58:39;;;;;;;1.10;0.70;;;6.90;99.90;;;;;;5110802;28;20740;-79
2021/05/05 05:01:06;;;;;;;4.22;0.68;;;7.10;99.90;;;;;;5109976;28;20998;-79
2021/05/05 05:03:33;;;;;;;1.27;1.20;;;7.20;99.90;;;;;;5110292;28;20221;-79
2021/05/05 05:05:59;;;;;;;2.13;1.20;;;7.40;99.90;;;;;;5112237;28;20189;-78
2021/05/05 05:08:26;;;;;;;1.75;1.30;;;7.10;99.90;;;;;;5121164;27;20194;-79
2021/05/05 05:10:52;;;;;;;1.80;1.00;;;7.30;99.90;;;;;;5128906;28;20208;-78
2021/05/05 05:13:19;;;;;;;0.70;0.70;;;7.30;99.90;;;;;;5122088;28;20663;-78
2021/05/05 05:15:45;;;;;;;1.27;1.17;;;7.30;99.90;;;;;;5110653;28;20205;-78
2021/05/05 05:18:12;;;;;;;5.65;1.48;;;7.50;99.90;;;;;;5124042;27;20201;-78
2021/05/05 05:20:39;;;;;;;1.30;1.20;;;7.70;99.90;;;;;;5122028;28;20231;-78
2021/05/05 05:23:06;;;;;;;1.40;1.30;;;7.80;99.90;;;;;;5122833;28;20209;-78
2021/05/05 05:25:32;;;;;;;1.95;1.13;;;7.80;99.90;;;;;;5121395;28;20232;-79
2021/05/05 05:27:59;;;;;;;2.17;1.02;;;7.90;99.90;;;;;;5112815;28;20581;-78
2021/05/05 05:30:25;;;;;;;1.40;1.30;;;7.70;99.90;;;;;;5121387;28;20221;-78
2021/05/05 05:32:53;;;;;;;1.17;0.90;;;7.20;99.90;;;;;;5124942;28;20232;-78
2021/05/05 05:35:20;;;;;;;1.17;1.00;;;7.40;99.90;;;;;;5110206;28;20304;-78
2021/05/05 05:37:47;;;;;;;0.82;0.70;;;7.50;99.90;;;;;;5112968;28;20193;-78
2021/05/05 05:40:17;;;;;;;0.82;0.80;;;7.70;99.90;;;;;;5121621;28;20713;-78
2021/05/05 05:42:43;;;;;;;1.48;1.08;;;7.90;99.90;;;;;;5111512;28;20245;-78
2021/05/05 05:45:11;;;;;;;1.45;0.80;;;7.80;99.90;;;;;;5113134;27;20688;-78
2021/05/05 05:47:38;;;;;;;3.28;0.88;;;7.70;99.90;;;;;;5106278;28;20663;-78
2021/05/05 05:50:06;;;;;;;1.25;1.15;;;7.60;99.90;;;;;;5111585;27;20198;-77
2021/05/05 05:52:33;;;;;;;1.20;1.10;;;7.50;99.90;;;;;;5128635;27;20186;-77
2021/05/05 05:54:59;;;;;;;1.20;1.20;;;7.60;99.90;;;;;;5126245;27;20190;-78
2021/05/05 05:57:26;;;;;;;1.88;1.30;;;7.30;99.90;;;;;;5127759;27;20225;-77
2021/05/05 05:59:52;;;;;;;5.15;1.27;;;7.60;99.90;;;;;;5113961;27;20194;-77
2021/05/05 06:02:19;;;;;;;2.35;1.40;;;7.60;99.90;;;;;;5122429;27;20588;-78
2021/05/05 06:04:45;;;;;;;2.20;2.00;;;7.70;99.90;;;;;;5110988;27;20198;-78
2021/05/05 06:07:12;;;;;;;2.67;2.42;;;7.60;99.90;;;;;;5130146;27;20193;-77
2021/05/05 06:09:39;;;;;;;2.88;2.10;;;7.70;99.90;;;;;;5116767;27;20201;-78
2021/05/05 06:12:06;;;;;;;2.08;1.60;;;7.80;99.90;;;;;;5121522;27;20225;-78
2021/05/05 06:14:33;;;;;;;2.50;1.70;;;7.70;99.90;;;;;;5115425;27;20200;-78
2021/05/05 06:16:59;;;;;;;3.25;2.03;;;7.70;99.90;;;;;;5133877;27;20201;-78
2021/05/05 06:19:26;;;;;;;2.33;2.13;;;7.50;99.90;;;;;;5126034;27;20202;-78
2021/05/05 06:21:52;;;;;;;2.17;1.60;;;7.50;99.90;;;;;;5114382;27;20209;-78
2021/05/05 06:24:19;;;;;;;2.65;2.20;;;7.50;99.90;;;;;;5113508;28;20232;-77
2021/05/05 06:26:46;;;;;;;1.67;1.58;;;7.50;99.90;;;;;;5123400;27;20197;-78
2021/05/05 06:29:12;;;;;;;2.40;2.20;;;7.40;99.90;;;;;;5131512;27;20192;-78
2021/05/05 06:31:39;;;;;;;2.72;1.90;;;7.50;99.90;;;;;;5134010;27;20189;-78
2021/05/05 06:34:06;;;;;;;5.15;2.33;;;7.30;99.90;;;;;;5115726;27;20202;-78
2021/05/05 06:36:33;;;;;;;4.05;2.03;;;7.30;99.90;;;;;;5121063;27;20189;-78
2021/05/05 06:38:59;;;;;;;5.93;1.95;;;7.20;99.90;;;;;;5133427;27;20186;-78
2021/05/05 06:41:26;;;;;;;9.57;3.42;;;7.30;99.90;;;;;;5114942;27;20201;-78
2021/05/05 06:43:53;;;;;;;3.10;2.63;;;7.40;99.90;;;;;;5123384;27;20320;-78
2021/05/05 06:46:20;;;;;;;3.10;2.10;;;7.30;99.90;;;;;;5125785;27;20185;-78
2021/05/05 06:48:46;;;;;;;2.67;1.95;;;7.50;99.90;;;;;;5114583;27;20205;-78
2021/05/05 06:51:13;;;;;;;3.72;2.33;;;7.50;99.90;;;;;;5113806;27;20202;-78
2021/05/05 06:53:39;;;;;;;2.25;2.05;;;7.30;99.90;;;;;;5115639;27;20211;-78
2021/05/05 06:56:06;;;;;;;6.93;3.05;;;7.40;99.90;;;;;;5122970;27;20189;-77
2021/05/05 06:58:32;;;;;;;5.78;2.90;;;7.40;99.90;;;;;;5116239;27;20258;-77
2021/05/05 07:01:00;;;;;;;6.65;2.95;;;7.50;99.90;;;;;;5114149;27;20194;-78
2021/05/05 07:03:26;;;;;;;2.40;2.20;;;7.80;99.90;;;;;;5128337;27;20313;-78
2021/05/05 07:05:53;;;;;;;2.90;2.70;;;8.00;99.90;;;;;;5118014;27;20518;-78
2021/05/05 07:08:19;;;;;;;3.05;2.75;;;8.00;99.90;;;;;;5121403;27;20202;-77
2021/05/05 07:10:46;;;;;;;2.88;2.50;;;8.30;99.90;;;;;;5131622;27;20678;-78
2021/05/05 07:13:12;;;;;;;2.75;2.35;;;8.20;99.90;;;;;;5114391;27;20602;-78
2021/05/05 07:15:39;;;;;;;2.10;2.00;;;8.20;99.90;;;;;;5124275;27;20197;-78
2021/05/05 07:18:06;;;;;;;3.22;2.75;;;8.20;97.60;;;;;;5116084;27;20208;-78
2021/05/05 07:20:33;;;;;;;4.35;2.25;;;8.30;98.00;;;;;;5124043;27;20534;-78
2021/05/05 07:22:59;;;;;;;3.40;2.80;;;8.30;98.20;;;;;;5124379;27;20217;-78
2021/05/05 07:25:26;;;;;;;3.28;1.67;;;8.20;97.30;;;;;;5122060;27;20562;-78
2021/05/05 07:27:52;;;;;;;4.72;2.28;;;8.00;95.70;;;;;;5133803;27;20193;-77
2021/05/05 07:30:20;;;;;;;5.55;2.58;;;8.00;96.90;;;;;;5114961;27;20294;-78
2021/05/05 07:32:47;;;;;;;4.07;1.75;;;8.20;97.50;;;;;;5113806;27;20217;-78
2021/05/05 07:35:17;;;;;;;3.58;2.10;;;8.20;96.80;;;;;;5113244;28;20544;-78
2021/05/05 07:46:05;;;;;;;4.07;1.90;;;7.90;93.80;;;;;;5120092;27;20217;-78
2021/05/05 07:48:39;;;;;;;2.70;1.70;;;7.80;92.70;;;;;;5110670;28;20544;-78
2021/05/05 07:51:07;;;;;;;1.52;1.42;;;7.70;92.30;;;;;;5114041;27;20194;-78
2021/05/05 07:53:33;;;;;;;2.72;1.98;;;7.60;90.60;;;;;;5122472;27;20202;-79
2021/05/05 07:56:00;;;;;;;1.65;1.10;;;7.50;90.10;;;;;;5111102;28;20190;-78
2021/05/05 07:58:27;;;;;;;2.75;1.98;;;7.70;92.00;;;;;;5111751;28;20205;-78
2021/05/05 08:00:53;;;;;;;2.55;1.67;;;7.80;90.10;;;;;;5123757;27;20254;-78
2021/05/05 08:03:20;;;;;;;3.75;2.03;;;7.80;86.20;;;;;;5121215;27;20217;-78
2021/05/05 08:05:46;;;;;;;2.60;1.60;;;7.90;88.80;;;;;;5130162;27;20241;-78
2021/05/05 08:08:14;;;;;;;2.08;1.85;;;7.90;84.30;;;;;;5111626;28;20255;-78
2021/05/05 08:10:40;;;;;;;3.10;1.70;;;8.00;84.30;;;;;;5122042;27;20658;-78
2021/05/05 08:13:07;;;;;;;3.22;2.10;;;8.20;83.10;;;;;;5121908;27;20190;-77
2021/05/05 08:15:35;;;;;;;2.30;1.63;;;8.40;85.40;;;;;;5118102;27;20201;-77
2021/05/05 08:18:02;;;;;;;3.50;2.55;;;8.60;81.60;;;;;;5125870;27;20202;-78
2021/05/05 08:20:29;;;;;;;2.47;1.70;;;8.70;82.60;;;;;;5112361;27;20202;-78
2021/05/05 08:22:55;;;;;;;3.63;1.88;;;8.80;79.20;;;;;;5111115;28;20221;-78
2021/05/05 08:25:23;;;;;;;2.00;1.80;;;9.00;78.60;;;;;;5117165;27;20201;-78
2021/05/05 08:27:50;;;;;;;2.17;1.95;;;8.90;77.50;;;;;;5120450;27;20198;-78
2021/05/05 08:30:17;;;;;;;1.23;1.10;;;8.80;78.70;;;;;;5117351;27;20278;-78
2021/05/05 08:32:44;;;;;;;2.67;1.25;;;8.50;76.20;;;;;;5129345;27;20200;-78
2021/05/05 08:35:11;;;;;;;2.28;1.70;;;8.50;77.80;;;;;;5122820;27;20551;-78
2021/05/05 08:37:38;;;;;;;2.10;1.90;;;8.60;79.70;;;;;;5111869;27;20247;-75
2021/05/05 08:40:06;;;;;;;4.07;1.98;;;8.50;76.20;;;;;;5110796;28;20586;-76
2021/05/05 08:42:34;;;;;;;3.45;1.85;;;8.90;80.10;;;;;;5111119;27;20677;-75
2021/05/05 08:45:01;;;;;;;1.45;1.25;;;9.10;75.80;;;;;;5110379;28;20693;-76
2021/05/05 08:47:27;;;;;;;4.53;1.75;;;9.00;77.20;;;;;;5111557;27;20209;-76
2021/05/05 08:49:54;;;;;;;2.70;2.03;;;8.90;75.70;;;;;;5110385;28;20243;-76
2021/05/05 08:52:21;;;;;;;3.10;1.77;;;8.70;73.60;;;;;;5110355;28;20549;-76
2021/05/05 08:54:47;;;;;;;2.65;2.10;;;8.80;73.50;;;;;;5111016;28;20185;-76
2021/05/05 08:57:15;;;;;;;3.33;1.70;;;8.70;72.20;;;;;;5110715;28;20209;-76
2021/05/05 08:59:46;;;;;;;4.50;1.75;;;9.00;75.40;;;;;;5111907;28;20197;-76
2021/05/05 09:02:12;;;;;;;2.25;1.77;;;9.20;73.40;;;;;;5126944;28;20263;-76
2021/05/05 09:04:39;;;;;;;2.70;1.63;;;9.40;72.70;;;;;;5118712;27;20266;-76
2021/05/05 09:07:07;;;;;;;1.58;1.48;;;9.80;72.30;;;;;;5109239;28;20709;-76
2021/05/05 09:09:38;;;;;;;3.60;1.73;;;9.90;70.80;;;;;;5109563;28;20212;-76
2021/05/05 09:12:18;;;;;;;3.22;1.38;;;9.90;69.80;;;;;;5126317;27;20295;-77
2021/05/05 09:15:00;;;;;;;2.33;1.73;;;9.80;64.20;;;;;;5129209;28;20197;-77
2021/05/05 09:17:28;;;;;;;3.90;1.80;;;9.80;63.00;;;;;;5103025;28;20314;-77
2021/05/05 09:20:16;;;;;;;2.70;1.30;;;9.90;64.70;;;;;;5097904;28;20220;-78
2021/05/05 09:22:46;;;;;;;1.90;1.80;;;10.00;59.90;;;;;;5093081;28;20237;-77
2021/05/05 09:25:14;;;;;;;1.73;1.13;;;9.60;63.30;;;;;;5100092;28;20691;-77
2021/05/05 09:27:42;;;;;;;2.83;1.80;;;9.60;64.30;;;;;;5105631;28;20290;-77
2021/05/05 09:30:21;;;;;;;6.93;1.80;;;9.60;64.70;;;;;;5094661;28;20210;-77
2021/05/05 09:32:50;;;;;;;2.25;2.05;;;9.40;65.40;;;;;;5110659;28;20190;-77
2021/05/05 09:35:17;;;;;;;4.18;1.75;;;9.20;67.90;;;;;;5104181;28;20190;-76
2021/05/05 09:37:55;;;;;;;3.08;1.60;;;9.30;68.60;;;;;;5103952;28;20193;-77
2021/05/05 09:40:22;;;;;;;1.60;1.50;;;9.20;69.10;;;;;;5103492;28;20207;-77
2021/05/05 09:42:49;;;;;;;3.53;1.80;;;9.30;70.60;;;;;;5113567;28;20298;-77
2021/05/05 09:45:17;;;;;;;9.32;1.95;;;9.80;70.00;;;;;;5107247;28;20213;-77
2021/05/05 09:47:49;;;;;;;3.25;1.55;;;10.30;61.70;;;;;;5107210;28;20222;-77
2021/05/05 09:50:30;;;;;;;3.15;1.50;;;10.70;62.30;;;;;;5103399;28;20207;-77
2021/05/05 09:53:32;;;;;;;2.85;1.63;;;10.50;59.50;;;;;;5093632;28;20199;-77
2021/05/05 09:56:12;;;;;;;2.77;2.00;;;10.80;60.50;;;;;;5013081;28;20263;-78
2021/05/05 09:58:41;;;;;;;2.25;1.63;;;10.70;55.20;;;;;;5023949;28;21072;-77
2021/05/05 10:01:20;;;;;;;1.80;1.50;;;10.80;55.90;;;;;;5072575;28;20612;-77
2021/05/05 10:03:52;;;;;;;4.77;1.97;;;10.80;53.00;;;;;;5113549;28;20982;-77
2021/05/05 10:06:37;;;;;;;1.20;1.13;;;11.00;54.70;;;;;;5097978;28;20632;-78
2021/05/05 10:09:06;;;;;;;1.30;1.20;;;11.40;54.40;;;;;;5106067;28;20623;-77
2021/05/05 10:11:35;;;;;;;1.63;1.40;;;11.60;53.50;;;;;;5107426;28;20620;-78
2021/05/05 10:14:03;;;;;;;3.93;1.50;;;11.70;52.80;;;;;;5095578;28;20624;-78
2021/05/05 10:16:34;;;;;;;2.90;1.37;;;12.00;55.10;;;;;;5103893;28;20738;-79
2021/05/05 10:19:02;;;;;;;4.20;1.50;;;12.10;51.80;;;;;;5104291;28;20706;-78
2021/05/05 10:21:31;;;;;;;4.33;1.37;;;11.90;52.90;;;;;;5112398;28;20631;-78
2021/05/05 10:24:09;;;;;;;1.27;1.17;;;11.90;52.40;;;;;;5097771;28;20656;-80
2021/05/05 10:26:36;;;;;;;1.50;1.20;;;11.90;52.00;;;;;;5099951;28;20689;-78
2021/05/05 10:29:04;;;;;;;3.23;1.37;;;12.00;50.60;;;;;;5101764;28;20608;-78
2021/05/05 10:31:35;;;;;;;5.23;1.60;;;11.90;50.10;;;;;;5110797;28;20624;-78
2021/05/05 10:34:02;;;;;;;1.90;1.60;;;12.40;52.30;;;;;;5107017;28;21180;-78
2021/05/05 10:36:37;;;;;;;1.40;1.30;;;12.50;51.40;;;;;;5101043;28;20630;-78
2021/05/05 10:39:31;;;;;;;2.30;1.10;;;12.40;51.10;;;;;;5112629;28;20702;-78
2021/05/05 10:42:19;;;;;;;2.03;1.13;;;12.00;51.70;;;;;;5111866;28;20673;-79
2021/05/05 10:44:50;;;;;;;1.40;1.30;;;12.40;52.80;;;;;;5092759;28;20983;-78
2021/05/05 10:47:22;;;;;;;1.67;1.40;;;12.80;51.40;;;;;;5072085;28;20613;-78
2021/05/05 10:50:16;;;;;;;2.40;1.00;;;12.80;49.60;;;;;;5092955;28;20624;-78
2021/05/05 10:53:10;;;;;;;1.83;1.20;;;12.10;48.60;;;;;;5092165;28;20628;-80
2021/05/05 10:55:44;;;;;;;1.83;0.90;;;11.90;50.20;;;;;;5087573;28;20974;-80
2021/05/05 10:58:14;;;;;;;1.57;0.83;;;11.00;52.50;;;;;;5089289;28;20934;-79
2021/05/05 11:00:45;;;;;;;1.20;0.82;;;9.40;60.20;;;;;;5089509;28;21008;-79
2021/05/05 11:03:14;;;;;;;0.50;0.30;;;8.50;68.80;;;;;;5095133;28;20256;-78
2021/05/05 11:05:42;;;;;;;0.50;0.50;;;7.60;76.50;;;;;;5101422;28;20279;-79
2021/05/05 11:08:25;;;;;;;3.03;1.38;;;6.90;86.20;;;;;;5112523;28;20251;-78
2021/05/05 11:10:58;;;;;;;3.45;0.65;;;6.60;93.30;;;;;;5101732;28;20252;-79
2021/05/05 11:13:41;;;;;;;1.48;1.38;;;6.50;96.60;;;;;;5105060;28;20198;-79
2021/05/05 11:16:08;;;;;;;1.42;0.88;;;6.40;98.40;;;;;;5094795;28;20695;-79
2021/05/05 11:18:51;;;;;;;0.70;0.70;;;6.30;99.30;;;;;;5085753;28;20187;-78
2021/05/05 11:21:41;;;;;;;0.73;0.63;;;6.30;99.60;;;;;;5091617;28;20197;-78
2021/05/05 11:24:30;;;;;;;0.98;0.88;;;6.20;99.20;;;;;;5091219;28;20211;-78
2021/05/05 11:26:57;;;;;;;1.77;0.98;;;6.20;98.50;;;;;;5110145;28;20279;-78
2021/05/05 11:29:32;;;;;;;1.27;0.75;;;6.40;99.00;;;;;;5102021;28;20199;-78
2021/05/05 11:32:12;;;;;;;1.30;1.20;;;7.10;99.90;;;;;;5090354;28;20731;-78
2021/05/05 11:34:40;;;;;;;0.90;0.70;;;7.30;96.60;;;;;;5106121;28;20195;-78
2021/05/05 11:37:12;;;;;;;0.77;0.77;;;7.40;95.50;;;;;;5112802;28;20247;-78
2021/05/05 11:39:40;;;;;;;0.65;0.65;;;7.60;94.40;;;;;;5110597;28;20587;-79
2021/05/05 11:42:10;;;;;;;0.57;0.52;;;8.10;93.70;;;;;;5096902;28;20236;-78
2021/05/05 11:44:42;;;;;;;2.50;1.02;;;8.00;93.00;;;;;;5110775;28;20194;-78
2021/05/05 11:47:10;;;;;;;1.10;1.00;;;7.90;93.10;;;;;;5109331;28;20213;-78
2021/05/05 11:49:40;;;;;;;0.70;0.70;;;8.60;92.10;;;;;;5109176;28;20298;-78
2021/05/05 11:52:23;;;;;;;0.80;0.60;;;9.30;90.70;;;;;;5106582;28;20203;-78
2021/05/05 11:54:51;;;;;;;0.80;0.80;;;10.20;83.40;;;;;;5096047;28;21441;-79
2021/05/05 11:57:18;;;;;;;1.50;0.80;;;10.70;82.30;;;;;;5097568;28;21015;-79
2021/05/05 11:59:45;;;;;;;1.07;0.80;;;10.30;77.70;;;;;;5090145;28;20704;-78
2021/05/05 12:02:12;;;;;;;0.77;0.77;;;9.80;80.40;;;;;;5109715;28;20678;-78
2021/05/05 12:04:41;;;;;;;1.47;1.20;;;9.40;80.40;;;;;;5105481;28;20613;-79
2021/05/05 12:07:10;;;;;;;1.00;0.90;;;9.50;77.60;;;;;;5109679;28;20979;-78
2021/05/05 12:09:38;;;;;;;1.07;1.00;;;10.00;76.10;;;;;;5111355;28;20198;-78
2021/05/05 12:12:21;;;;;;;1.00;1.00;;;12.80;69.70;;;;;;5097296;28;21177;-78
2021/05/05 12:14:49;;;;;;;1.77;1.40;;;15.90;57.80;;;;;;5106268;28;20619;-79
2021/05/05 12:17:23;;;;;;;1.10;0.97;;;16.90;50.90;;;;;;5073567;28;20619;-79
2021/05/05 12:20:09;;;;;;;1.77;1.67;;;18.30;48.70;;;;;;5078667;28;20622;-79
2021/05/05 12:22:37;;;;;;;1.10;1.10;;;18.50;47.40;;;;;;5091620;28;20666;-79
2021/05/05 12:25:19;;;;;;;1.93;1.20;;;18.00;45.40;;;;;;5096638;28;20641;-80
2021/05/05 12:28:04;;;;;;;3.07;1.10;;;17.20;45.10;;;;;;5098549;28;20667;-79
2021/05/05 12:30:40;;;;;;;1.87;0.90;;;15.50;49.00;;;;;;5100345;28;20616;-79
2021/05/05 12:33:07;;;;;;;2.00;1.17;;;14.30;50.80;;;;;;5091591;28;20685;-79
2021/05/05 12:35:36;;;;;;;1.13;1.03;;;14.30;52.20;;;;;;5102699;28;20639;-79
2021/05/05 12:38:09;;;;;;;1.90;1.20;;;13.30;53.40;;;;;;5097975;28;20631;-79
2021/05/05 12:40:36;;;;;;;4.10;1.37;;;12.00;53.80;;;;;;5093801;28;20609;-78
2021/05/05 12:43:14;;;;;;;0.80;0.60;;;11.20;55.80;;;;;;5106985;28;20640;-79
2021/05/05 12:45:41;;;;;;;0.97;0.73;;;10.90;55.90;;;;;;5096787;28;20616;-78
2021/05/05 12:48:08;;;;;;;0.40;0.40;;;10.30;54.70;;;;;;5105193;28;20621;-79
2021/05/05 12:50:41;;;;;;;1.25;0.82;;;9.40;57.30;;;;;;5101792;28;20616;-78
2021/05/05 12:53:08;;;;;;;1.03;1.00;;;9.10;63.20;;;;;;5093300;28;20191;-80
2021/05/05 12:55:38;;;;;;;0.90;0.90;;;10.20;65.60;;;;;;5091296;28;20616;-79
2021/05/05 12:58:11;;;;;;;1.87;0.77;;;13.40;61.60;;;;;;5072742;28;20628;-80
2021/05/05 13:00:39;;;;;;;0.77;0.77;;;15.50;52.40;;;;;;5110503;28;20631;-80
2021/05/05 13:03:11;;;;;;;1.17;0.80;;;17.00;49.70;;;;;;5101300;28;20656;-80
2021/05/05 13:06:02;;;;;;;1.33;1.03;;;18.30;47.30;;;;;;5095732;28;20643;-80
2021/05/05 13:08:32;;;;;;;0.70;0.70;;;20.30;45.30;;;;;;5108349;28;20620;-80
2021/05/05 13:11:00;;;;;;;1.17;0.70;;;19.80;42.20;;;;;;5090514;28;20625;-80
2021/05/05 13:13:52;;;;;;;0.60;0.60;;;23.10;44.30;;;;;;5103490;28;20625;-81
2021/05/05 13:16:30;;;;;;;1.03;0.70;;;23.60;40.70;;;;;;5109063;28;20709;-80